Pagina principale
METAR-TAF:

METAR-TAF

Aeroporti :

Digione, Francia

latitudine: 47-16N, longitudine: 005-05E, altezza: 222 m

Osservazione

Il bollettino è stato emesso 29 minuti fa, alle 07:30 UTC
Vento 6 kt da nord/nord-ovest
Temperature 17°C
Umidità 63%
Pressione 1022 hPa
Visibilità 10 km o più
nessuna nube inferiore a 1500 m e nessun cumulonembo

METAR: LFSD 200730Z AUTO 34006KT CAVOK 17/10 Q1022

Ora: 09:59 (07:59 UTC)


TAF: mancante

Osservazioni e previsioni meteorologiche di più di 4000 aeroporti (messaggi METAR e TAF).

Le stazioni disponibili sono rappresentate dai dischi gialli e rossi sulla carta.

Puntare il mouse per vedere il nome della stazione.

Clicca sopra per visualizzare le osservazioni e previsioni meteorologiche.

Per cambiare la mappa : fare clic sui pulsanti verdi con una croce nera per ingrandire, il pulsante verde con un trattino per diminuire, o sulla freccia verde per le mappe adiacenti.


METAR-TAF: